sensor_id;sensor_type;location;lat;lon;timestamp;temperature;humidity
73438;DHT22;66471;56.532;21.020;2023-01-09T06:13:01;0.50;99.90
73438;DHT22;66471;56.532;21.020;2023-01-09T06:15:28;0.50;99.90
73438;DHT22;66471;56.532;21.020;2023-01-09T06:17:55;0.50;99.90
73438;DHT22;66471;56.532;21.020;2023-01-09T06:20:22;0.50;99.90
73438;DHT22;66471;56.532;21.020;2023-01-09T06:22:49;0.50;99.90
73438;DHT22;66471;56.532;21.020;2023-01-09T06:25:18;0.60;99.90
73438;DHT22;66471;56.532;21.020;2023-01-09T06:27:45;0.60;99.90
73438;DHT22;66471;56.532;21.020;2023-01-09T06:30:19;0.60;99.90
73438;DHT22;66471;56.532;21.020;2023-01-09T06:32:50;0.80;99.90
73438;DHT22;66471;56.532;21.020;2023-01-09T06:35:17;0.70;99.90
73438;DHT22;66471;56.532;21.020;2023-01-09T06:37:47;0.70;99.90
73438;DHT22;66471;56.532;21.020;2023-01-09T06:40:15;0.50;99.90
73438;DHT22;66471;56.532;21.020;2023-01-09T06:42:48;0.60;99.90
73438;DHT22;66471;56.532;21.020;2023-01-09T06:45:16;0.80;99.90
73438;DHT22;66471;56.532;21.020;2023-01-09T06:47:43;0.70;99.90
73438;DHT22;66471;56.532;21.020;2023-01-09T06:50:11;0.80;99.90
73438;DHT22;66471;56.532;21.020;2023-01-09T06:52:39;0.70;99.90
73438;DHT22;66471;56.532;21.020;2023-01-09T06:55:07;0.80;99.90
73438;DHT22;66471;56.532;21.020;2023-01-09T06:57:35;0.70;99.90
73438;DHT22;66471;56.532;21.020;2023-01-09T07:00:03;0.60;99.90
73438;DHT22;66471;56.532;21.020;2023-01-09T07:02:30;0.60;99.90
73438;DHT22;66471;56.532;21.020;2023-01-09T07:04:58;0.80;99.90
73438;DHT22;66471;56.532;21.020;2023-01-09T07:07:25;0.60;99.90
73438;DHT22;66471;56.532;21.020;2023-01-09T07:09:52;0.60;99.90
73438;DHT22;66471;56.532;21.020;2023-01-09T07:12:19;0.70;99.90
73438;DHT22;66471;56.532;21.020;2023-01-09T07:14:47;0.50;99.90
73438;DHT22;66471;56.532;21.020;2023-01-09T07:17:15;0.70;99.90
73438;DHT22;66471;56.532;21.020;2023-01-09T07:19:42;0.70;99.90
73438;DHT22;66471;56.532;21.020;2023-01-09T07:22:11;0.70;99.90
73438;DHT22;66471;56.532;21.020;2023-01-09T07:24:38;0.60;99.90
73438;DHT22;66471;56.532;21.020;2023-01-09T07:27:05;0.60;99.90
73438;DHT22;66471;56.532;21.020;2023-01-09T07:29:33;0.70;99.90
73438;DHT22;66471;56.532;21.020;2023-01-09T07:32:00;0.50;99.90
73438;DHT22;66471;56.532;21.020;2023-01-09T07:34:27;0.60;99.90
73438;DHT22;66471;56.532;21.020;2023-01-09T07:36:54;0.50;99.90
73438;DHT22;66471;56.532;21.020;2023-01-09T07:39:21;0.70;99.90
73438;DHT22;66471;56.532;21.020;2023-01-09T07:41:49;0.70;99.90
73438;DHT22;66471;56.532;21.020;2023-01-09T07:44:16;0.50;99.90
73438;DHT22;66471;56.532;21.020;2023-01-09T07:46:43;0.60;99.90
73438;DHT22;66471;56.532;21.020;2023-01-09T07:51:38;0.70;99.90
73438;DHT22;66471;56.532;21.020;2023-01-09T07:54:09;0.70;99.90
73438;DHT22;66471;56.532;21.020;2023-01-09T07:56:38;0.70;99.90
73438;DHT22;66471;56.532;21.020;2023-01-09T07:59:05;0.70;99.90
73438;DHT22;66471;56.532;21.020;2023-01-09T08:01:32;0.70;99.90
73438;DHT22;66471;56.532;21.020;2023-01-09T08:03:59;0.70;99.90
73438;DHT22;66471;56.532;21.020;2023-01-09T08:06:26;0.80;99.90
73438;DHT22;66471;56.532;21.020;2023-01-09T08:08:53;0.80;99.90
73438;DHT22;66471;56.532;21.020;2023-01-09T08:11:20;0.70;99.90
73438;DHT22;66471;56.532;21.020;2023-01-09T08:13:48;0.70;99.90
73438;DHT22;66471;56.532;21.020;2023-01-09T08:16:15;0.80;99.90
73438;DHT22;66471;56.532;21.020;2023-01-09T08:18:42;0.60;99.90
73438;DHT22;66471;56.532;21.020;2023-01-09T08:21:09;0.70;99.90
73438;DHT22;66471;56.532;21.020;2023-01-09T08:23:40;0.80;99.90
73438;DHT22;66471;56.532;21.020;2023-01-09T08:26:07;0.80;99.90
73438;DHT22;66471;56.532;21.020;2023-01-09T08:28:34;0.60;99.90
73438;DHT22;66471;56.532;21.020;2023-01-09T08:31:01;1.00;99.90
73438;DHT22;66471;56.532;21.020;2023-01-09T08:33:28;0.70;99.90
73438;DHT22;66471;56.532;21.020;2023-01-09T08:35:55;0.90;99.90
73438;DHT22;66471;56.532;21.020;2023-01-09T08:38:23;0.90;99.90
73438;DHT22;66471;56.532;21.020;2023-01-09T08:40:50;0.90;99.90
73438;DHT22;66471;56.532;21.020;2023-01-09T08:43:17;0.70;99.90
73438;DHT22;66471;56.532;21.020;2023-01-09T08:46:02;0.70;99.90
73438;DHT22;66471;56.532;21.020;2023-01-09T08:48:47;0.80;99.90
73438;DHT22;66471;56.532;21.020;2023-01-09T08:51:15;0.70;99.90
73438;DHT22;66471;56.532;21.020;2023-01-09T08:53:42;0.90;99.90
73438;DHT22;66471;56.532;21.020;2023-01-09T08:56:09;0.80;99.90
73438;DHT22;66471;56.532;21.020;2023-01-09T08:58:36;0.80;99.90
73438;DHT22;66471;56.532;21.020;2023-01-09T09:03:48;0.80;99.90
73438;DHT22;66471;56.532;21.020;2023-01-09T09:06:15;0.60;99.90
73438;DHT22;66471;56.532;21.020;2023-01-09T09:08:42;0.60;99.90
73438;DHT22;66471;56.532;21.020;2023-01-09T09:11:09;0.50;99.90
73438;DHT22;66471;56.532;21.020;2023-01-09T09:13:37;0.60;99.90
73438;DHT22;66471;56.532;21.020;2023-01-09T09:16:04;0.70;99.90
73438;DHT22;66471;56.532;21.020;2023-01-09T09:18:32;0.80;99.90
73438;DHT22;66471;56.532;21.020;2023-01-09T09:20:59;0.70;99.90
73438;DHT22;66471;56.532;21.020;2023-01-09T09:23:26;0.70;99.90
73438;DHT22;66471;56.532;21.020;2023-01-09T09:25:53;0.50;99.90
73438;DHT22;66471;56.532;21.020;2023-01-09T09:28:20;0.80;99.90
73438;DHT22;66471;56.532;21.020;2023-01-09T09:30:47;0.70;99.90
73438;DHT22;66471;56.532;21.020;2023-01-09T09:33:15;0.80;99.90
73438;DHT22;66471;56.532;21.020;2023-01-09T09:35:42;0.70;99.90
73438;DHT22;66471;56.532;21.020;2023-01-09T09:38:09;0.80;99.90
73438;DHT22;66471;56.532;21.020;2023-01-09T09:43:29;0.60;99.90
73438;DHT22;66471;56.532;21.020;2023-01-09T09:49:15;0.60;99.90
73438;DHT22;66471;56.532;21.020;2023-01-09T09:51:55;0.70;99.90
73438;DHT22;66471;56.532;21.020;2023-01-09T09:54:32;1.00;99.90
73438;DHT22;66471;56.532;21.020;2023-01-09T09:57:02;0.50;99.90
73438;DHT22;66471;56.532;21.020;2023-01-09T09:59:37;0.80;99.90
73438;DHT22;66471;56.532;21.020;2023-01-09T10:05:09;0.80;99.90
73438;DHT22;66471;56.532;21.020;2023-01-09T10:07:46;0.70;99.90
73438;DHT22;66471;56.532;21.020;2023-01-09T10:10:28;0.80;99.90
73438;DHT22;66471;56.532;21.020;2023-01-09T10:33:57;0.70;99.90
73438;DHT22;66471;56.532;21.020;2023-01-09T10:36:54;0.70;99.90
73438;DHT22;66471;56.532;21.020;2023-01-09T10:39:34;0.60;99.90
73438;DHT22;66471;56.532;21.020;2023-01-09T10:47:41;0.70;99.90
73438;DHT22;66471;56.532;21.020;2023-01-09T10:50:20;0.70;99.90
73438;DHT22;66471;56.532;21.020;2023-01-09T10:52:50;0.80;99.90
73438;DHT22;66471;56.532;21.020;2023-01-09T14:21:06;0.50;99.90
73438;DHT22;66471;56.532;21.020;2023-01-09T14:23:39;0.70;99.90
73438;DHT22;66471;56.532;21.020;2023-01-09T14:26:40;0.60;99.90
73438;DHT22;66471;56.532;21.020;2023-01-09T14:29:39;0.70;99.90
73438;DHT22;66471;56.532;21.020;2023-01-09T14:34:57;0.60;99.90
73438;DHT22;66471;56.532;21.020;2023-01-09T14:37:27;0.90;99.90
73438;DHT22;66471;56.532;21.020;2023-01-09T14:39:57;1.00;99.90
73438;DHT22;66471;56.532;21.020;2023-01-09T14:42:27;0.80;99.90
73438;DHT22;66471;56.532;21.020;2023-01-09T14:45:04;0.80;99.90
73438;DHT22;66471;56.532;21.020;2023-01-09T14:53:14;0.80;99.90
73438;DHT22;66471;56.532;21.020;2023-01-09T14:56:02;0.80;99.90
73438;DHT22;66471;56.532;21.020;2023-01-09T14:58:34;0.90;99.90
73438;DHT22;66471;56.532;21.020;2023-01-09T15:01:15;0.80;99.90
73438;DHT22;66471;56.532;21.020;2023-01-09T15:04:16;0.90;99.90
73438;DHT22;66471;56.532;21.020;2023-01-09T15:06:45;0.90;99.90
73438;DHT22;66471;56.532;21.020;2023-01-09T15:09:32;0.90;99.90
73438;DHT22;66471;56.532;21.020;2023-01-09T15:12:07;0.90;99.90
73438;DHT22;66471;56.532;21.020;2023-01-09T15:14:38;0.70;99.90
73438;DHT22;66471;56.532;21.020;2023-01-09T15:17:20;0.90;99.90
73438;DHT22;66471;56.532;21.020;2023-01-09T15:19:48;1.00;99.90
73438;DHT22;66471;56.532;21.020;2023-01-09T15:22:29;0.80;99.90
73438;DHT22;66471;56.532;21.020;2023-01-09T15:24:57;0.90;99.90
73438;DHT22;66471;56.532;21.020;2023-01-09T15:27:25;0.80;99.90
73438;DHT22;66471;56.532;21.020;2023-01-09T15:29:52;1.00;99.90
73438;DHT22;66471;56.532;21.020;2023-01-09T15:32:27;0.90;99.90
73438;DHT22;66471;56.532;21.020;2023-01-09T15:34:56;0.90;99.90
73438;DHT22;66471;56.532;21.020;2023-01-09T15:37:30;0.90;99.90
73438;DHT22;66471;56.532;21.020;2023-01-09T15:40:00;0.90;99.90
73438;DHT22;66471;56.532;21.020;2023-01-09T15:42:31;0.80;99.90
73438;DHT22;66471;56.532;21.020;2023-01-09T15:45:26;1.00;99.90
73438;DHT22;66471;56.532;21.020;2023-01-09T15:48:14;0.80;99.90
73438;DHT22;66471;56.532;21.020;2023-01-09T15:50:43;0.80;99.90
73438;DHT22;66471;56.532;21.020;2023-01-09T15:53:16;1.00;99.90
73438;DHT22;66471;56.532;21.020;2023-01-09T15:55:44;0.70;99.90
73438;DHT22;66471;56.532;21.020;2023-01-09T15:58:36;1.00;99.90
73438;DHT22;66471;56.532;21.020;2023-01-09T16:03:51;0.80;99.90
73438;DHT22;66471;56.532;21.020;2023-01-09T16:06:26;1.00;99.90
73438;DHT22;66471;56.532;21.020;2023-01-09T16:09:00;1.00;99.90
73438;DHT22;66471;56.532;21.020;2023-01-09T16:11:35;0.80;99.90
73438;DHT22;66471;56.532;21.020;2023-01-09T16:14:21;1.00;99.90
73438;DHT22;66471;56.532;21.020;2023-01-09T16:16:51;0.80;99.90
73438;DHT22;66471;56.532;21.020;2023-01-09T16:22:29;0.90;99.90
73438;DHT22;66471;56.532;21.020;2023-01-09T16:25:27;1.00;99.90
73438;DHT22;66471;56.532;21.020;2023-01-09T16:28:22;1.00;99.90
73438;DHT22;66471;56.532;21.020;2023-01-09T16:31:05;0.80;99.90
73438;DHT22;66471;56.532;21.020;2023-01-09T16:33:46;0.80;99.90
73438;DHT22;66471;56.532;21.020;2023-01-09T16:36:15;0.80;99.90
73438;DHT22;66471;56.532;21.020;2023-01-09T16:38:43;1.00;99.90
73438;DHT22;66471;56.532;21.020;2023-01-09T16:41:19;0.90;99.90
73438;DHT22;66471;56.532;21.020;2023-01-09T16:44:08;0.80;99.90
73438;DHT22;66471;56.532;21.020;2023-01-09T16:46:42;1.00;99.90
73438;DHT22;66471;56.532;21.020;2023-01-09T16:49:21;1.10;99.90
73438;DHT22;66471;56.532;21.020;2023-01-09T16:51:50;1.10;99.90
73438;DHT22;66471;56.532;21.020;2023-01-09T16:54:17;1.10;99.90
73438;DHT22;66471;56.532;21.020;2023-01-09T16:56:50;0.90;99.90
73438;DHT22;66471;56.532;21.020;2023-01-09T16:59:22;0.80;99.90
73438;DHT22;66471;56.532;21.020;2023-01-09T17:01:51;1.00;99.90
73438;DHT22;66471;56.532;21.020;2023-01-09T17:04:19;1.10;99.90
73438;DHT22;66471;56.532;21.020;2023-01-09T17:06:47;1.00;99.90
73438;DHT22;66471;56.532;21.020;2023-01-09T17:09:17;1.10;99.90
73438;DHT22;66471;56.532;21.020;2023-01-09T17:11:45;0.90;99.90
73438;DHT22;66471;56.532;21.020;2023-01-09T17:14:13;1.00;99.90
73438;DHT22;66471;56.532;21.020;2023-01-09T17:16:42;0.80;99.90
73438;DHT22;66471;56.532;21.020;2023-01-09T17:19:17;0.90;99.90
73438;DHT22;66471;56.532;21.020;2023-01-09T17:21:45;1.00;99.90
73438;DHT22;66471;56.532;21.020;2023-01-09T17:24:12;0.90;99.90
73438;DHT22;66471;56.532;21.020;2023-01-09T17:27:00;0.90;99.90
73438;DHT22;66471;56.532;21.020;2023-01-09T17:29:47;0.80;99.90
73438;DHT22;66471;56.532;21.020;2023-01-09T17:32:18;1.00;99.90
73438;DHT22;66471;56.532;21.020;2023-01-09T17:34:45;0.90;99.90
73438;DHT22;66471;56.532;21.020;2023-01-09T17:37:18;0.90;99.90
73438;DHT22;66471;56.532;21.020;2023-01-09T17:39:45;0.90;99.90
73438;DHT22;66471;56.532;21.020;2023-01-09T17:42:12;0.90;99.90
73438;DHT22;66471;56.532;21.020;2023-01-09T17:44:39;0.80;99.90
73438;DHT22;66471;56.532;21.020;2023-01-09T17:47:14;0.90;99.90
73438;DHT22;66471;56.532;21.020;2023-01-09T17:49:42;0.80;99.90
73438;DHT22;66471;56.532;21.020;2023-01-09T17:52:09;1.00;99.90
73438;DHT22;66471;56.532;21.020;2023-01-09T17:54:39;0.90;99.90
73438;DHT22;66471;56.532;21.020;2023-01-09T17:57:11;0.70;99.90
73438;DHT22;66471;56.532;21.020;2023-01-09T17:59:42;0.80;99.90
73438;DHT22;66471;56.532;21.020;2023-01-09T18:02:15;0.80;99.90
73438;DHT22;66471;56.532;21.020;2023-01-09T18:04:44;0.80;99.90
73438;DHT22;66471;56.532;21.020;2023-01-09T18:07:16;0.80;99.90
73438;DHT22;66471;56.532;21.020;2023-01-09T18:09:44;0.80;99.90
73438;DHT22;66471;56.532;21.020;2023-01-09T18:12:11;0.70;99.90
73438;DHT22;66471;56.532;21.020;2023-01-09T18:14:39;0.60;99.90
73438;DHT22;66471;56.532;21.020;2023-01-09T18:17:11;0.90;99.90
73438;DHT22;66471;56.532;21.020;2023-01-09T18:19:44;0.90;99.90
73438;DHT22;66471;56.532;21.020;2023-01-09T18:22:12;0.80;99.90
73438;DHT22;66471;56.532;21.020;2023-01-09T18:24:39;0.80;99.90
73438;DHT22;66471;56.532;21.020;2023-01-09T18:27:08;0.70;99.90
73438;DHT22;66471;56.532;21.020;2023-01-09T18:29:36;0.70;99.90
73438;DHT22;66471;56.532;21.020;2023-01-09T18:32:03;0.60;99.90
73438;DHT22;66471;56.532;21.020;2023-01-09T18:34:30;0.60;99.90
73438;DHT22;66471;56.532;21.020;2023-01-09T18:36:57;0.70;99.90
73438;DHT22;66471;56.532;21.020;2023-01-09T18:39:24;0.70;99.90
73438;DHT22;66471;56.532;21.020;2023-01-09T18:41:51;0.70;99.90
73438;DHT22;66471;56.532;21.020;2023-01-09T18:44:19;0.80;99.90
73438;DHT22;66471;56.532;21.020;2023-01-09T18:46:47;0.70;99.90
73438;DHT22;66471;56.532;21.020;2023-01-09T18:49:14;0.70;99.90
73438;DHT22;66471;56.532;21.020;2023-01-09T18:51:42;0.80;99.90
73438;DHT22;66471;56.532;21.020;2023-01-09T18:54:09;0.40;99.90
73438;DHT22;66471;56.532;21.020;2023-01-09T18:56:39;0.60;99.90
73438;DHT22;66471;56.532;21.020;2023-01-09T18:59:08;0.60;99.90
73438;DHT22;66471;56.532;21.020;2023-01-09T19:01:35;0.60;99.90
73438;DHT22;66471;56.532;21.020;2023-01-09T19:04:02;0.60;99.90
73438;DHT22;66471;56.532;21.020;2023-01-09T19:06:30;0.50;99.90
73438;DHT22;66471;56.532;21.020;2023-01-09T19:08:58;0.50;99.90
73438;DHT22;66471;56.532;21.020;2023-01-09T19:11:25;0.60;99.90
73438;DHT22;66471;56.532;21.020;2023-01-09T19:13:53;0.80;99.90
73438;DHT22;66471;56.532;21.020;2023-01-09T19:16:20;0.60;99.90
73438;DHT22;66471;56.532;21.020;2023-01-09T19:18:50;0.60;99.90
73438;DHT22;66471;56.532;21.020;2023-01-09T19:21:20;0.50;99.90
73438;DHT22;66471;56.532;21.020;2023-01-09T19:23:48;0.60;99.90
73438;DHT22;66471;56.532;21.020;2023-01-09T19:26:24;0.40;99.90
73438;DHT22;66471;56.532;21.020;2023-01-09T19:28:53;0.70;99.90
73438;DHT22;66471;56.532;21.020;2023-01-09T19:31:26;0.60;99.90
73438;DHT22;66471;56.532;21.020;2023-01-09T19:33:55;0.60;99.90
73438;DHT22;66471;56.532;21.020;2023-01-09T19:36:23;0.70;99.90
73438;DHT22;66471;56.532;21.020;2023-01-09T19:38:55;0.60;99.90
73438;DHT22;66471;56.532;21.020;2023-01-09T19:41:22;0.50;99.90
73438;DHT22;66471;56.532;21.020;2023-01-09T19:43:50;0.40;99.90
73438;DHT22;66471;56.532;21.020;2023-01-09T19:46:20;0.60;99.90
73438;DHT22;66471;56.532;21.020;2023-01-09T19:48:49;0.50;99.90
73438;DHT22;66471;56.532;21.020;2023-01-09T19:51:19;0.70;99.90
73438;DHT22;66471;56.532;21.020;2023-01-09T19:53:51;0.60;99.90
73438;DHT22;66471;56.532;21.020;2023-01-09T19:56:21;0.60;99.90
73438;DHT22;66471;56.532;21.020;2023-01-09T19:58:50;0.50;99.90
73438;DHT22;66471;56.532;21.020;2023-01-09T20:03:49;0.50;99.90
73438;DHT22;66471;56.532;21.020;2023-01-09T20:06:19;0.60;99.90
73438;DHT22;66471;56.532;21.020;2023-01-09T20:08:54;0.50;99.90
73438;DHT22;66471;56.532;21.020;2023-01-09T20:11:23;0.60;99.90
73438;DHT22;66471;56.532;21.020;2023-01-09T20:13:51;0.40;99.90
73438;DHT22;66471;56.532;21.020;2023-01-09T20:16:20;0.50;99.90
73438;DHT22;66471;56.532;21.020;2023-01-09T20:18:48;0.40;99.90
73438;DHT22;66471;56.532;21.020;2023-01-09T20:21:17;0.40;99.90
73438;DHT22;66471;56.532;21.020;2023-01-09T20:23:44;0.60;99.90
73438;DHT22;66471;56.532;21.020;2023-01-09T20:26:11;0.40;99.90
73438;DHT22;66471;56.532;21.020;2023-01-09T20:28:38;0.50;99.90
73438;DHT22;66471;56.532;21.020;2023-01-09T20:31:11;0.40;99.90
73438;DHT22;66471;56.532;21.020;2023-01-09T20:33:39;0.50;99.90
73438;DHT22;66471;56.532;21.020;2023-01-09T20:36:07;0.60;99.90
73438;DHT22;66471;56.532;21.020;2023-01-09T20:38:36;0.40;99.90
73438;DHT22;66471;56.532;21.020;2023-01-09T20:41:13;0.50;99.90
73438;DHT22;66471;56.532;21.020;2023-01-09T20:43:55;0.40;99.90
73438;DHT22;66471;56.532;21.020;2023-01-09T20:46:25;0.20;99.90
73438;DHT22;66471;56.532;21.020;2023-01-09T20:48:54;0.30;99.90
73438;DHT22;66471;56.532;21.020;2023-01-09T20:51:22;0.40;99.90
73438;DHT22;66471;56.532;21.020;2023-01-09T20:53:50;0.50;99.90
73438;DHT22;66471;56.532;21.020;2023-01-09T20:56:25;0.40;99.90
73438;DHT22;66471;56.532;21.020;2023-01-09T20:58:53;0.20;99.90
73438;DHT22;66471;56.532;21.020;2023-01-09T21:01:20;0.30;99.90
73438;DHT22;66471;56.532;21.020;2023-01-09T21:03:49;0.40;99.90
73438;DHT22;66471;56.532;21.020;2023-01-09T21:06:18;0.30;99.90
73438;DHT22;66471;56.532;21.020;2023-01-09T21:08:46;0.50;99.90
73438;DHT22;66471;56.532;21.020;2023-01-09T21:11:14;0.30;99.90
73438;DHT22;66471;56.532;21.020;2023-01-09T21:13:41;0.50;99.90
73438;DHT22;66471;56.532;21.020;2023-01-09T21:16:13;0.60;99.90
73438;DHT22;66471;56.532;21.020;2023-01-09T21:18:42;0.30;99.90
73438;DHT22;66471;56.532;21.020;2023-01-09T21:21:12;0.30;99.90
73438;DHT22;66471;56.532;21.020;2023-01-09T21:23:47;0.30;99.90
73438;DHT22;66471;56.532;21.020;2023-01-09T21:26:14;0.60;99.90
73438;DHT22;66471;56.532;21.020;2023-01-09T21:28:42;0.30;99.90
73438;DHT22;66471;56.532;21.020;2023-01-09T21:31:17;0.40;99.90
73438;DHT22;66471;56.532;21.020;2023-01-09T21:33:46;0.50;99.90
73438;DHT22;66471;56.532;21.020;2023-01-09T21:36:13;0.40;99.90
73438;DHT22;66471;56.532;21.020;2023-01-09T21:38:40;0.40;99.90
73438;DHT22;66471;56.532;21.020;2023-01-09T21:41:07;0.20;99.90
73438;DHT22;66471;56.532;21.020;2023-01-09T21:43:53;0.20;99.90
73438;DHT22;66471;56.532;21.020;2023-01-09T21:46:38;0.20;99.90
73438;DHT22;66471;56.532;21.020;2023-01-09T21:49:18;0.30;99.90
73438;DHT22;66471;56.532;21.020;2023-01-09T21:51:46;0.20;99.90
73438;DHT22;66471;56.532;21.020;2023-01-09T21:54:13;0.30;99.90
73438;DHT22;66471;56.532;21.020;2023-01-09T21:56:40;0.10;99.90
73438;DHT22;66471;56.532;21.020;2023-01-09T21:59:08;0.30;99.90
73438;DHT22;66471;56.532;21.020;2023-01-09T22:01:35;0.10;99.90
73438;DHT22;66471;56.532;21.020;2023-01-09T22:04:03;0.30;99.90
73438;DHT22;66471;56.532;21.020;2023-01-09T22:06:30;0.20;99.90
73438;DHT22;66471;56.532;21.020;2023-01-09T22:08:58;0.20;99.90
73438;DHT22;66471;56.532;21.020;2023-01-09T22:11:25;0.00;99.90
73438;DHT22;66471;56.532;21.020;2023-01-09T22:13:52;0.10;99.90
73438;DHT22;66471;56.532;21.020;2023-01-09T22:16:19;0.20;99.90
73438;DHT22;66471;56.532;21.020;2023-01-09T22:18:47;0.30;99.90
73438;DHT22;66471;56.532;21.020;2023-01-09T22:21:15;0.10;99.90
73438;DHT22;66471;56.532;21.020;2023-01-09T22:23:43;0.20;99.90
73438;DHT22;66471;56.532;21.020;2023-01-09T22:26:12;0.30;99.90
73438;DHT22;66471;56.532;21.020;2023-01-09T22:28:40;0.00;99.90
73438;DHT22;66471;56.532;21.020;2023-01-09T22:31:14;0.10;99.90
73438;DHT22;66471;56.532;21.020;2023-01-09T22:33:41;0.20;99.90
73438;DHT22;66471;56.532;21.020;2023-01-09T22:36:10;0.30;99.90
73438;DHT22;66471;56.532;21.020;2023-01-09T22:38:38;0.00;99.90
73438;DHT22;66471;56.532;21.020;2023-01-09T22:41:05;0.00;99.90
73438;DHT22;66471;56.532;21.020;2023-01-09T22:43:32;0.10;99.90
73438;DHT22;66471;56.532;21.020;2023-01-09T22:46:00;0.30;99.90
73438;DHT22;66471;56.532;21.020;2023-01-09T22:48:28;0.20;99.90
73438;DHT22;66471;56.532;21.020;2023-01-09T22:51:01;0.00;99.90
73438;DHT22;66471;56.532;21.020;2023-01-09T22:53:29;0.00;99.90
73438;DHT22;66471;56.532;21.020;2023-01-09T22:55:58;0.20;99.90
73438;DHT22;66471;56.532;21.020;2023-01-09T22:58:26;0.00;99.90
73438;DHT22;66471;56.532;21.020;2023-01-09T23:00:54;0.00;99.90
73438;DHT22;66471;56.532;21.020;2023-01-09T23:03:21;0.00;99.90
73438;DHT22;66471;56.532;21.020;2023-01-09T23:05:57;0.00;99.90
73438;DHT22;66471;56.532;21.020;2023-01-09T23:08:25;0.00;99.90
73438;DHT22;66471;56.532;21.020;2023-01-09T23:10:52;0.10;99.90
73438;DHT22;66471;56.532;21.020;2023-01-09T23:13:19;0.30;99.90
73438;DHT22;66471;56.532;21.020;2023-01-09T23:15:46;0.10;99.90
73438;DHT22;66471;56.532;21.020;2023-01-09T23:18:13;0.00;99.90
73438;DHT22;66471;56.532;21.020;2023-01-09T23:20:40;0.20;99.90
73438;DHT22;66471;56.532;21.020;2023-01-09T23:23:07;0.00;99.90
73438;DHT22;66471;56.532;21.020;2023-01-09T23:25:34;0.10;99.90
73438;DHT22;66471;56.532;21.020;2023-01-09T23:28:01;0.20;99.90
73438;DHT22;66471;56.532;21.020;2023-01-09T23:30:28;0.20;99.90
73438;DHT22;66471;56.532;21.020;2023-01-09T23:32:55;0.00;99.90
73438;DHT22;66471;56.532;21.020;2023-01-09T23:35:22;0.20;99.90
73438;DHT22;66471;56.532;21.020;2023-01-09T23:37:49;0.40;99.90
73438;DHT22;66471;56.532;21.020;2023-01-09T23:40:16;0.20;99.90
73438;DHT22;66471;56.532;21.020;2023-01-09T23:42:44;0.10;99.90
73438;DHT22;66471;56.532;21.020;2023-01-09T23:45:29;0.20;99.90
73438;DHT22;66471;56.532;21.020;2023-01-09T23:47:56;0.10;99.90
73438;DHT22;66471;56.532;21.020;2023-01-09T23:50:23;0.20;99.90
73438;DHT22;66471;56.532;21.020;2023-01-09T23:52:50;0.10;99.90
73438;DHT22;66471;56.532;21.020;2023-01-09T23:55:17;0.30;99.90
73438;DHT22;66471;56.532;21.020;2023-01-09T23:57:44;0.40;99.90
